Lovejoy, Illinois
Current Conditions -  °F | °C
As of 11:53 AM on Friday 31 Oct 2014 (Local Time) from KCPS Reporting Station
Few Clouds Few Clouds  
Wind Chill: 35°   Ceiling: Unl
Heat Index: 44°   Visibility: 10mi
Dew Point: 27°   Wind: 25mph
Humidity: 51%   Direction: 330°NNW
Pressure: 30.3"   Gusts: 35mph
Location:  38.63°N, 90.15°W
Report Text: KCPS 311653Z 33022G30KT 10SM FEW044 07/M03 A3030 RMK AO2 PK WND 34031/1637 SLP260 T00671028
Loading
Personal Weather Stations






























Interactive Weather Map New forecast layout! Learn more

10-Day Weather Forecast

Advertisements
Track Severe Weather on mobile